createdAt,value
2022-12-04T00:02:12.888Z,101199.25
2022-12-04T00:05:14.763Z,101202.78
2022-12-04T00:08:16.665Z,101202.47
2022-12-04T00:11:19.726Z,101193.75
2022-12-04T00:14:21.625Z,101201.19
2022-12-04T00:17:23.487Z,101206.41
2022-12-04T00:20:25.302Z,101200.25
2022-12-04T00:23:27.242Z,101210.16
2022-12-04T00:26:31.095Z,101204.84
2022-12-04T00:29:32.933Z,101201.97
2022-12-04T00:32:34.781Z,101213.03
2022-12-04T00:35:36.567Z,101212.78
2022-12-04T00:38:38.575Z,101218.19
2022-12-04T00:41:40.451Z,101216.16
2022-12-04T00:44:42.333Z,101209.44
2022-12-04T00:47:44.269Z,101205.66
2022-12-04T00:50:46.141Z,101198.19
2022-12-04T00:53:48.029Z,101198.72
2022-12-04T00:56:49.885Z,101207.38
2022-12-04T00:59:51.833Z,101212.69
2022-12-04T01:02:53.873Z,101209.53
2022-12-04T01:05:55.712Z,101209.00
2022-12-04T01:08:58.518Z,101204.03
2022-12-04T01:12:00.343Z,101204.75
2022-12-04T01:15:02.150Z,101215.22
2022-12-04T01:18:03.981Z,101206.69
2022-12-04T01:21:05.881Z,101207.22
2022-12-04T01:24:07.772Z,101212.22
2022-12-04T01:27:09.601Z,101214.59
2022-12-04T01:30:11.736Z,101209.25
2022-12-04T01:33:13.580Z,101209.25
2022-12-04T01:36:25.365Z,101218.03
2022-12-04T01:39:27.221Z,101212.19
2022-12-04T01:42:29.037Z,101212.47
2022-12-04T01:45:30.809Z,101210.69
2022-12-04T01:48:34.003Z,101210.72
2022-12-04T01:51:39.897Z,101215.84
2022-12-04T01:54:46.356Z,101211.00
2022-12-04T01:57:48.212Z,101216.09
2022-12-04T02:00:51.863Z,101215.31
2022-12-04T02:03:54.192Z,101193.75
2022-12-04T02:06:56.021Z,101199.63
2022-12-04T02:10:03.656Z,101197.03
2022-12-04T02:13:08.039Z,101189.84
2022-12-04T02:16:14.440Z,101199.00
2022-12-04T02:19:48.918Z,101193.59
2022-12-04T02:22:55.783Z,101187.22
2022-12-04T02:25:57.598Z,101192.25
2022-12-04T02:29:03.530Z,101200.91
2022-12-04T02:32:08.312Z,101194.56
2022-12-04T02:35:12.903Z,101201.00
2022-12-04T02:38:20.822Z,101198.00
2022-12-04T02:41:23.058Z,101191.44
2022-12-04T02:44:28.665Z,101183.56
2022-12-04T02:47:30.485Z,101195.16
2022-12-04T02:50:32.412Z,101205.00
2022-12-04T02:53:34.993Z,101201.34
2022-12-04T02:56:38.193Z,101204.31
2022-12-04T02:59:41.256Z,101192.78
2022-12-04T03:02:43.228Z,101194.75
2022-12-04T03:05:59.339Z,101198.50
2022-12-04T03:09:09.945Z,101191.88
2022-12-04T03:12:26.905Z,101191.19
2022-12-04T03:15:33.740Z,101190.22
2022-12-04T03:18:47.715Z,101198.94
2022-12-04T03:21:53.953Z,101196.28
2022-12-04T03:24:56.174Z,101189.97
2022-12-04T03:27:58.686Z,101187.19
2022-12-04T03:31:04.432Z,101182.28
2022-12-04T03:34:06.373Z,101188.19
2022-12-04T03:37:10.483Z,101189.56
2022-12-04T03:40:24.510Z,101191.19
2022-12-04T03:43:52.595Z,101191.69
2022-12-04T03:46:55.683Z,101183.44
2022-12-04T03:49:58.908Z,101186.19
2022-12-04T03:53:00.684Z,101190.56
2022-12-04T03:56:13.658Z,101188.69
2022-12-04T03:59:17.960Z,101199.97
2022-12-04T04:02:20.241Z,101194.13
2022-12-04T04:05:22.152Z,101198.75
2022-12-04T04:08:27.466Z,101198.44
2022-12-04T04:11:31.843Z,101189.87
2022-12-04T04:14:53.910Z,101184.41
2022-12-04T04:18:14.241Z,101196.50
2022-12-04T04:21:35.772Z,101202.84
2022-12-04T04:24:37.512Z,101197.16
2022-12-04T04:27:39.360Z,101208.19
2022-12-04T04:30:41.224Z,101201.19
2022-12-04T04:33:47.880Z,101200.06
2022-12-04T04:36:49.767Z,101203.41
2022-12-04T04:40:11.847Z,101204.66
2022-12-04T04:43:18.993Z,101197.97
2022-12-04T04:46:25.644Z,101205.69
2022-12-04T04:49:28.448Z,101196.19
2022-12-04T04:52:30.256Z,101189.41
2022-12-04T04:55:34.594Z,101199.66
2022-12-04T04:58:36.518Z,101189.87
2022-12-04T05:01:38.716Z,101194.16
2022-12-04T05:04:40.562Z,101204.66
2022-12-04T05:07:42.499Z,101196.97
2022-12-04T05:10:44.342Z,101198.22
2022-12-04T05:13:46.192Z,101197.53
2022-12-04T05:16:48.056Z,101195.84
2022-12-04T05:19:59.415Z,101193.41
2022-12-04T05:23:01.506Z,101193.69
2022-12-04T05:26:04.068Z,101197.62
2022-12-04T05:29:05.868Z,101194.03
2022-12-04T05:32:07.725Z,101193.34
2022-12-04T05:35:11.603Z,101193.66
2022-12-04T05:38:13.657Z,101181.91
2022-12-04T05:41:15.465Z,101187.59
2022-12-04T05:44:17.358Z,101186.63
2022-12-04T05:47:19.351Z,101183.88
2022-12-04T05:50:21.173Z,101187.50
2022-12-04T05:53:23.092Z,101189.84
2022-12-04T05:56:24.960Z,101177.22
2022-12-04T05:59:26.819Z,101185.25
2022-12-04T06:02:28.789Z,101197.00
2022-12-04T06:05:32.223Z,101204.06
2022-12-04T06:08:34.004Z,101195.91
2022-12-04T06:11:36.668Z,101197.06
2022-12-04T06:14:39.976Z,101193.22
2022-12-04T06:17:42.005Z,101184.66
2022-12-04T06:20:43.945Z,101197.31
2022-12-04T06:23:45.751Z,101204.53
2022-12-04T06:27:18.836Z,101212.66
2022-12-04T06:30:09.740Z,101206.78
2022-12-04T06:33:11.624Z,101212.47
2022-12-04T06:36:14.931Z,101213.22
2022-12-04T06:39:18.954Z,101213.41
2022-12-04T06:42:21.037Z,101220.88
2022-12-04T06:45:22.851Z,101215.00
2022-12-04T06:48:24.683Z,101214.31
2022-12-04T06:51:33.384Z,101218.50
2022-12-04T06:54:35.198Z,101204.84
2022-12-04T06:57:37.016Z,101215.41
2022-12-04T07:00:38.854Z,101209.81
2022-12-04T07:03:43.549Z,101208.78
2022-12-04T07:06:48.145Z,101203.47
2022-12-04T07:09:49.990Z,101208.81
2022-12-04T07:12:51.841Z,101203.53
2022-12-04T07:15:53.677Z,101217.31
2022-12-04T07:18:56.686Z,101216.19
2022-12-04T07:21:58.607Z,101195.44
2022-12-04T07:25:00.526Z,101225.28
2022-12-04T07:28:02.347Z,101218.81
2022-12-04T07:31:05.237Z,101211.09
2022-12-04T07:34:07.411Z,101211.91
2022-12-04T07:37:09.209Z,101212.97
2022-12-04T07:40:11.376Z,101204.81
2022-12-04T07:43:13.281Z,101211.09
2022-12-04T07:46:16.326Z,101218.25
2022-12-04T07:49:18.172Z,101197.72
2022-12-04T07:52:20.023Z,101207.38
2022-12-04T07:55:23.414Z,101207.19
2022-12-04T07:58:25.713Z,101215.97
2022-12-04T08:01:27.656Z,101200.03
2022-12-04T08:04:29.693Z,101216.84
2022-12-04T08:07:32.176Z,101204.50
2022-12-04T08:10:34.063Z,101212.75
2022-12-04T08:13:35.944Z,101199.72
2022-12-04T08:16:37.816Z,101216.19
2022-12-04T08:19:39.708Z,101218.78
2022-12-04T08:22:41.653Z,101213.50
2022-12-04T08:25:43.524Z,101209.78
2022-12-04T08:28:45.558Z,101205.25
2022-12-04T08:31:47.332Z,101197.06
2022-12-04T08:34:55.488Z,101192.63
2022-12-04T08:37:57.811Z,101191.78
2022-12-04T08:41:01.159Z,101199.69
2022-12-04T08:44:03.138Z,101198.16
2022-12-04T08:47:04.962Z,101205.50
2022-12-04T08:50:07.108Z,101198.50
2022-12-04T08:53:08.959Z,101196.91
2022-12-04T08:56:10.828Z,101214.03
2022-12-04T08:59:12.920Z,101193.91
2022-12-04T09:02:16.678Z,101201.97
2022-12-04T09:05:18.538Z,101209.53
2022-12-04T09:08:20.421Z,101212.34
2022-12-04T09:11:23.923Z,101209.09
2022-12-04T09:14:26.595Z,101204.03
2022-12-04T09:17:28.536Z,101192.44
2022-12-04T09:20:30.441Z,101204.38
2022-12-04T09:23:32.403Z,101188.72
2022-12-04T09:26:34.261Z,101190.72
2022-12-04T09:29:36.073Z,101195.97
2022-12-04T09:32:38.071Z,101192.13
2022-12-04T09:35:39.896Z,101194.03
2022-12-04T09:38:42.368Z,101187.09
2022-12-04T09:42:13.487Z,101178.97
2022-12-04T09:45:19.108Z,101173.41
2022-12-04T09:48:21.067Z,101172.19
2022-12-04T09:51:22.893Z,101164.22
2022-12-04T09:54:26.231Z,101158.87
2022-12-04T09:57:35.197Z,101161.63
2022-12-04T10:00:37.347Z,101149.44
2022-12-04T10:03:39.305Z,101150.75
2022-12-04T10:06:43.236Z,101139.00
2022-12-04T10:09:46.728Z,101146.53
2022-12-04T10:12:48.527Z,101131.44
2022-12-04T10:15:50.544Z,101127.59
2022-12-04T10:18:58.715Z,101134.44
2022-12-04T10:22:09.884Z,101121.19
2022-12-04T10:25:12.517Z,101121.41
2022-12-04T10:28:23.657Z,101115.50
2022-12-04T10:31:25.684Z,101113.62
2022-12-04T10:34:28.695Z,101098.09
2022-12-04T10:37:30.529Z,101106.22
2022-12-04T10:40:32.349Z,101094.50
2022-12-04T10:43:40.340Z,101099.09
2022-12-04T10:46:46.036Z,101091.37
2022-12-04T10:49:48.595Z,101092.44
2022-12-04T10:52:50.633Z,101084.41
2022-12-04T10:55:52.468Z,101082.28
2022-12-04T10:59:04.897Z,101074.25
2022-12-04T11:02:23.358Z,101064.56
2022-12-04T11:05:26.773Z,101058.91
2022-12-04T11:08:48.838Z,101050.50
2022-12-04T11:11:50.779Z,101061.56
2022-12-04T11:15:07.600Z,101036.53
2022-12-04T11:18:12.926Z,101042.09
2022-12-04T11:21:15.662Z,101033.75
2022-12-04T11:24:29.029Z,101024.69
2022-12-04T11:27:32.760Z,101024.38
2022-12-04T11:30:35.291Z,101021.09
2022-12-04T11:33:45.235Z,101014.97
2022-12-04T11:36:50.750Z,101025.69
2022-12-04T11:39:52.768Z,101012.66
2022-12-04T11:43:26.964Z,101018.25
2022-12-04T11:46:30.783Z,101011.62
2022-12-04T11:49:33.134Z,101006.06
2022-12-04T11:52:50.277Z,100994.47
2022-12-04T11:56:04.484Z,100995.94
2022-12-04T11:59:18.596Z,100988.69
2022-12-04T12:02:40.323Z,100993.78
2022-12-04T12:06:04.532Z,100988.47
2022-12-04T12:09:16.289Z,100973.47
2022-12-04T12:12:20.125Z,100966.22
2022-12-04T12:15:37.272Z,100981.53
2022-12-04T12:18:50.380Z,100981.41
2022-12-04T12:22:08.987Z,100982.06
2022-12-04T12:25:23.009Z,100983.34
2022-12-04T12:28:27.904Z,100986.34
2022-12-04T12:31:29.746Z,100983.06
2022-12-04T12:34:31.635Z,100988.06
2022-12-04T12:37:39.464Z,100985.66
2022-12-04T12:40:45.158Z,100987.59
2022-12-04T12:44:16.392Z,100986.75
2022-12-04T12:47:19.490Z,100981.75
2022-12-04T12:50:22.612Z,100980.25
2022-12-04T12:53:25.706Z,100982.09
2022-12-04T12:56:31.966Z,100984.88
2022-12-04T12:59:33.794Z,100975.69
2022-12-04T13:02:54.082Z,100960.84
2022-12-04T13:05:56.996Z,100971.22
2022-12-04T13:09:05.032Z,100969.13
2022-12-04T13:12:09.056Z,100967.03
2022-12-04T13:15:17.761Z,100966.81
2022-12-04T13:18:52.047Z,100969.44
2022-12-04T13:22:12.760Z,100966.19
2022-12-04T13:25:23.631Z,100973.16
2022-12-04T13:28:25.386Z,100963.31
2022-12-04T13:31:42.844Z,100980.09
2022-12-04T13:34:44.752Z,100981.28
2022-12-04T13:37:52.568Z,100998.16
2022-12-04T13:40:55.717Z,100995.56
2022-12-04T13:43:59.027Z,100987.81
2022-12-04T13:47:05.369Z,100996.44
2022-12-04T13:50:07.229Z,100985.47
2022-12-04T13:53:29.057Z,100987.00
2022-12-04T13:56:30.953Z,100997.31
2022-12-04T13:59:37.167Z,100992.16
2022-12-04T14:02:39.064Z,100988.72
2022-12-04T14:05:42.275Z,100996.47
2022-12-04T14:08:44.100Z,101008.69
2022-12-04T14:11:46.768Z,100999.94
2022-12-04T14:14:52.604Z,101015.59
2022-12-04T14:18:01.991Z,101020.88
2022-12-04T14:21:05.486Z,101010.06
2022-12-04T14:24:15.911Z,101015.06
2022-12-04T14:27:36.636Z,101009.09
2022-12-04T14:30:39.166Z,101019.16
2022-12-04T14:33:44.667Z,101014.81
2022-12-04T14:36:46.554Z,101015.47
2022-12-04T14:39:48.485Z,101011.13
2022-12-04T14:42:50.392Z,101005.06
2022-12-04T14:45:56.914Z,101008.81
2022-12-04T14:49:18.338Z,101008.00
2022-12-04T14:52:31.810Z,101004.62
2022-12-04T14:55:46.004Z,100999.69
2022-12-04T14:58:47.855Z,101002.34
2022-12-04T15:01:49.984Z,101019.69
2022-12-04T15:04:52.029Z,101007.72
2022-12-04T15:07:54.909Z,101015.78
2022-12-04T15:11:15.583Z,101021.19
2022-12-04T15:14:17.393Z,101019.38
2022-12-04T15:17:19.509Z,101021.66
2022-12-04T15:20:21.651Z,101022.12
2022-12-04T15:23:43.703Z,101017.91
2022-12-04T15:26:46.774Z,101014.22
2022-12-04T15:29:49.241Z,101012.78
2022-12-04T15:32:51.912Z,101020.69
2022-12-04T15:36:04.246Z,101019.16
2022-12-04T15:39:06.122Z,101027.19
2022-12-04T15:42:18.983Z,101019.31
2022-12-04T15:45:20.958Z,101021.41
2022-12-04T15:48:23.748Z,101034.56
2022-12-04T15:51:25.565Z,101022.91
2022-12-04T15:54:27.463Z,101024.19
2022-12-04T15:57:30.240Z,101024.63
2022-12-04T16:00:33.396Z,101036.41
2022-12-04T16:03:41.486Z,101026.34
2022-12-04T16:06:46.737Z,101023.56
2022-12-04T16:09:52.342Z,101032.19
2022-12-04T16:12:54.885Z,101019.41
2022-12-04T16:15:57.330Z,101029.38
2022-12-04T16:18:59.200Z,101025.59
2022-12-04T16:22:01.768Z,101025.69
2022-12-04T16:25:03.820Z,101021.19
2022-12-04T16:28:05.635Z,101024.13
2022-12-04T16:31:07.948Z,101023.78
2022-12-04T16:34:11.591Z,101026.13
2022-12-04T16:37:14.152Z,101026.97
2022-12-04T16:40:16.188Z,101032.06
2022-12-04T16:43:18.315Z,101025.16
2022-12-04T16:46:20.176Z,101028.16
2022-12-04T16:49:22.025Z,101023.69
2022-12-04T16:52:23.964Z,101028.47
2022-12-04T16:55:31.600Z,101026.31
2022-12-04T16:58:33.404Z,101026.50
2022-12-04T17:01:36.562Z,101022.09
2022-12-04T17:04:38.541Z,101033.41
2022-12-04T17:07:41.550Z,101026.97
2022-12-04T17:10:43.474Z,101031.09
2022-12-04T17:13:45.356Z,101028.41
2022-12-04T17:16:47.427Z,101031.34
2022-12-04T17:19:49.464Z,101031.06
2022-12-04T17:22:51.327Z,101029.31
2022-12-04T17:25:53.623Z,101029.78
2022-12-04T17:28:55.498Z,101037.63
2022-12-04T17:31:57.392Z,101032.25
2022-12-04T17:34:59.473Z,101037.06
2022-12-04T17:38:06.013Z,101038.31
2022-12-04T17:41:08.788Z,101036.41
2022-12-04T17:44:10.635Z,101045.69
2022-12-04T17:47:12.577Z,101051.13
2022-12-04T17:50:14.957Z,101049.00
2022-12-04T17:53:16.794Z,101057.91
2022-12-04T17:56:19.931Z,101053.75
2022-12-04T17:59:21.789Z,101050.22
2022-12-04T18:02:23.713Z,101039.16
2022-12-04T18:05:25.629Z,101038.97
2022-12-04T18:08:29.516Z,101042.09
2022-12-04T18:11:32.063Z,101042.03
2022-12-04T18:14:35.242Z,101032.16
2022-12-04T18:17:37.342Z,101048.09
2022-12-04T18:20:39.256Z,101053.53
2022-12-04T18:23:47.894Z,101048.03
2022-12-04T18:26:50.181Z,101045.56
2022-12-04T18:29:52.040Z,101060.22
2022-12-04T18:32:58.333Z,101055.62
2022-12-04T18:36:00.281Z,101060.41
2022-12-04T18:39:03.762Z,101053.00
2022-12-04T18:42:05.708Z,101058.66
2022-12-04T18:45:07.795Z,101070.13
2022-12-04T18:48:09.870Z,101075.38
2022-12-04T18:51:15.978Z,101060.19
2022-12-04T18:54:18.973Z,101072.47
2022-12-04T18:57:20.816Z,101064.53
2022-12-04T19:00:22.731Z,101064.22
2022-12-04T19:03:24.521Z,101063.34
2022-12-04T19:06:27.377Z,101064.16
2022-12-04T19:10:02.526Z,101064.75
2022-12-04T19:12:53.773Z,101061.91
2022-12-04T19:15:55.616Z,101064.25
2022-12-04T19:18:57.654Z,101062.12
2022-12-04T19:22:01.100Z,101063.63
2022-12-04T19:25:03.161Z,101060.87
2022-12-04T19:28:05.240Z,101066.38
2022-12-04T19:31:13.984Z,101062.22
2022-12-04T19:34:15.966Z,101074.16
2022-12-04T19:37:17.840Z,101067.56
2022-12-04T19:40:19.851Z,101076.47
2022-12-04T19:43:21.707Z,101075.16
2022-12-04T19:46:26.024Z,101070.78
2022-12-04T19:49:27.865Z,101072.75
2022-12-04T19:52:29.679Z,101069.41
2022-12-04T19:55:31.549Z,101065.75
2022-12-04T19:58:35.457Z,101072.19
2022-12-04T20:01:37.603Z,101075.25
2022-12-04T20:04:39.476Z,101080.87
2022-12-04T20:07:41.368Z,101072.44
2022-12-04T20:10:43.210Z,101074.59
2022-12-04T20:13:45.593Z,101073.66
2022-12-04T20:16:47.740Z,101076.25
2022-12-04T20:19:49.780Z,101079.94
2022-12-04T20:22:51.595Z,101080.63
2022-12-04T20:25:53.516Z,101085.31
2022-12-04T20:28:55.930Z,101081.53
2022-12-04T20:31:57.761Z,101090.41
2022-12-04T20:34:59.822Z,101092.84
2022-12-04T20:38:01.924Z,101092.31
2022-12-04T20:41:04.588Z,101090.72
2022-12-04T20:44:07.440Z,101104.87
2022-12-04T20:47:09.264Z,101102.06
2022-12-04T20:50:11.696Z,101106.66
2022-12-04T20:53:13.625Z,101104.97
2022-12-04T20:56:15.943Z,101095.81
2022-12-04T20:59:18.847Z,101104.94
2022-12-04T21:02:20.767Z,101112.22
2022-12-04T21:05:22.669Z,101093.84
2022-12-04T21:08:42.984Z,101102.16
2022-12-04T21:11:46.257Z,101105.22
2022-12-04T21:15:07.020Z,101096.47
2022-12-04T21:18:08.929Z,101100.63
2022-12-04T21:21:10.706Z,101096.75
2022-12-04T21:24:13.363Z,101098.84
2022-12-04T21:27:20.772Z,101098.78
2022-12-04T21:30:22.933Z,101103.25
2022-12-04T21:33:24.801Z,101099.78
2022-12-04T21:36:26.956Z,101100.69
2022-12-04T21:39:28.944Z,101094.25
2022-12-04T21:42:30.770Z,101106.91
2022-12-04T21:45:32.717Z,101100.25
2022-12-04T21:48:35.405Z,101116.38
2022-12-04T21:51:56.705Z,101107.22
2022-12-04T21:54:58.940Z,101100.84
2022-12-04T21:58:00.796Z,101099.97
2022-12-04T22:01:08.330Z,101096.91
2022-12-04T22:04:10.239Z,101105.59
2022-12-04T22:07:12.066Z,101109.13
2022-12-04T22:10:14.007Z,101112.28
2022-12-04T22:13:16.061Z,101113.62
2022-12-04T22:16:18.425Z,101110.22
2022-12-04T22:19:20.349Z,101111.53
2022-12-04T22:22:22.147Z,101110.50
2022-12-04T22:25:23.993Z,101113.94
2022-12-04T22:28:25.842Z,101103.25
2022-12-04T22:31:28.426Z,101111.81
2022-12-04T22:34:30.433Z,101100.00
2022-12-04T22:37:32.414Z,101108.97
2022-12-04T22:40:34.267Z,101101.28
2022-12-04T22:43:40.679Z,101104.16
2022-12-04T22:46:43.011Z,101096.66
2022-12-04T22:49:45.236Z,101096.41
2022-12-04T22:52:47.101Z,101095.47
2022-12-04T22:55:48.873Z,101097.31
2022-12-04T22:58:50.836Z,101095.22
2022-12-04T23:01:52.643Z,101088.09
2022-12-04T23:04:54.490Z,101096.38
2022-12-04T23:07:56.392Z,101100.03
2022-12-04T23:10:58.410Z,101105.00
2022-12-04T23:14:01.330Z,101106.16
2022-12-04T23:17:03.210Z,101101.31
2022-12-04T23:20:05.450Z,101097.84
2022-12-04T23:23:07.256Z,101098.47
2022-12-04T23:26:10.217Z,101092.25
2022-12-04T23:29:36.995Z,101089.22
2022-12-04T23:32:33.888Z,101086.75
2022-12-04T23:35:35.725Z,101085.03
2022-12-04T23:38:37.983Z,101081.53
2022-12-04T23:41:39.792Z,101081.16
2022-12-04T23:44:41.582Z,101097.22
2022-12-04T23:47:43.625Z,101089.25
2022-12-04T23:50:45.489Z,101098.94
2022-12-04T23:53:47.514Z,101096.44
2022-12-04T23:56:49.333Z,101104.16
2022-12-04T23:59:52.149Z,101099.59
